Time;durP1;ratioP1;P1;durP2;ratioP2;P2;SDS_P1;SDS_P2;PMS_P1;PMS_P2;Temp;Humidity;BMP_temperature;BMP_pressure;BME280_temperature;BME280_humidity;BME280_pressure;Samples;Min_cycle;Max_cycle;Signal;HPM_P1;HPM_P2
2022/10/26 00:01:11;;;;;;;18.17;7.47;;;;;;;;;;5139237;27;20505;-82
2022/10/26 00:03:56;;;;;;;16.88;7.43;;;;;;;;;;5154613;27;20034;-82
2022/10/26 00:06:41;;;;;;;12.60;6.47;;;;;;;;;;5155448;27;20042;-82
2022/10/26 00:09:25;;;;;;;15.27;7.43;;;;;;;;;;5143386;27;20453;-82
2022/10/26 00:12:10;;;;;;;17.40;7.93;;;;;;;;;;5135826;27;20099;-82
2022/10/26 00:14:54;;;;;;;16.17;7.30;;;;;;;;;;5154760;27;20181;-84
2022/10/26 00:17:39;;;;;;;17.15;7.60;;;;;;;;;;5140763;27;20064;-82
2022/10/26 00:20:24;;;;;;;18.10;7.72;;;;;;;;;;5139594;27;20045;-83
2022/10/26 00:23:08;;;;;;;11.70;7.07;;;;;;;;;;5138509;27;20389;-82
2022/10/26 00:25:54;;;;;;;12.88;7.43;;;;;;;;;;5155078;27;20065;-82
2022/10/26 00:28:38;;;;;;;12.18;7.32;;;;;;;;;;5138703;27;20106;-81
2022/10/26 00:31:24;;;;;;;12.25;7.47;;;;;;;;;;5141142;27;20485;-82
2022/10/26 00:34:10;;;;;;;15.25;6.95;;;9.90;99.90;;;;;;5154225;27;20485;-82
2022/10/26 00:36:54;;;;;;;14.88;7.30;;;;;;;;;;5154525;27;20230;-82
2022/10/26 00:39:39;;;;;;;15.95;7.30;;;;;;;;;;5124387;27;20084;-81
2022/10/26 00:42:23;;;;;;;16.90;8.27;;;;;;;;;;5154759;27;20041;-82
2022/10/26 00:45:28;;;;;;;14.95;7.57;;;9.80;99.90;;;;;;5138309;27;20046;-82
2022/10/26 00:48:23;;;;;;;12.38;6.97;;;;;;;;;;5153688;27;20034;-82
2022/10/26 00:51:10;;;;;;;11.20;5.93;;;;;;;;;;5138122;27;20033;-82
2022/10/26 00:53:55;;;;;;;12.95;6.93;;;;;;;;;;5154466;27;20118;-82
2022/10/26 00:56:41;;;;;;;13.82;7.00;;;;;;;;;;5123876;27;20076;-82
2022/10/26 00:59:26;;;;;;;14.13;6.65;;;;;;;;;;5154735;27;20542;-82
2022/10/26 01:02:10;;;;;;;12.73;7.00;;;;;;;;;;5153644;27;20509;-82
2022/10/26 01:04:56;;;;;;;12.68;7.07;;;;;;;;;;5147180;27;20079;-82
2022/10/26 01:07:42;;;;;;;12.13;6.55;;;;;;;;;;5124185;27;20118;-82
2022/10/26 01:10:27;;;;;;;16.85;7.05;;;;;;;;;;5138372;27;20045;-82
2022/10/26 01:13:12;;;;;;;15.98;6.55;;;;;;;;;;5153522;27;20154;-82
2022/10/26 01:16:25;;;;;;;13.20;6.82;;;9.50;99.90;;;;;;5154184;27;20071;-82
2022/10/26 01:19:22;;;;;;;13.40;7.15;;;;;;;;;;5137287;27;20505;-82
2022/10/26 01:22:07;;;;;;;13.63;7.65;;;;;;;;;;5153423;27;20041;-82
2022/10/26 01:25:02;;;;;;;11.70;7.20;;;;;;;;;;5153803;27;20087;-82
2022/10/26 01:27:48;;;;;;;12.23;6.78;;;;;;;;;;5137823;27;20034;-82
2022/10/26 01:30:36;;;;;;;12.32;6.18;;;;;;;;;;5145770;27;20075;-82
2022/10/26 01:33:37;;;;;;;14.80;6.80;;;;;;;;;;5117159;27;20042;-83
2022/10/26 01:36:28;;;;;;;11.75;6.75;;;;;;;;;;5117218;27;20076;-82
2022/10/26 01:39:18;;;;;;;12.75;6.90;;;;;;;;;;5139803;27;20076;-82
2022/10/26 01:42:04;;;;;;;12.40;6.30;;;;;;;;;;5135607;27;20029;-82
2022/10/26 01:44:53;;;;;;;16.27;7.30;;;;;;;;;;5137617;27;20510;-82
2022/10/26 01:47:38;;;;;;;13.55;6.63;;;;;;;;;;5133278;27;20160;-82
2022/10/26 01:50:24;;;;;;;13.98;6.85;;;;;;;;;;5133279;27;20049;-82
2022/10/26 01:53:11;;;;;;;12.15;7.22;;;;;;;;;;5137433;27;20049;-82
2022/10/26 01:55:56;;;;;;;10.95;6.97;;;;;;;;;;5137448;27;20034;-82
2022/10/26 01:59:03;;;;;;;12.40;6.88;;;;;;;;;;5153308;27;20044;-82
2022/10/26 02:01:48;;;;;;;14.27;7.10;;;;;;;;;;5153696;27;20111;-82
2022/10/26 02:04:54;;;;;;;14.35;7.72;;;9.10;99.90;;;;;;5131373;28;20042;-82
2022/10/26 02:07:54;;;;;;;12.40;7.00;;;;;;;;;;5135208;27;20077;-82
2022/10/26 02:11:07;;;;;;;15.95;7.85;;;9.00;99.90;;;;;;5137823;27;20041;-83
2022/10/26 02:13:55;;;;;;;17.15;8.45;;;;;;;;;;5127950;27;20071;-82
2022/10/26 02:16:48;;;;;;;18.42;9.57;;;;;;;;;;5153504;27;20080;-82
2022/10/26 02:19:57;;;;;;;13.80;8.33;;;;;;;;;;5152683;27;20030;-82
2022/10/26 02:22:45;;;;;;;14.48;8.57;;;;;;;;;;5137220;27;20484;-83
2022/10/26 02:25:32;;;;;;;15.23;9.00;;;;;;;;;;5137167;27;20699;-83
2022/10/26 02:28:25;;;;;;;15.57;9.60;;;;;;;;;;5152626;27;20034;-83
2022/10/26 02:31:11;;;;;;;16.17;8.43;;;;;;;;;;5153308;27;20084;-83
2022/10/26 02:33:58;;;;;;;12.68;7.25;;;;;;;;;;5142986;27;20087;-82
2022/10/26 02:36:44;;;;;;;17.85;8.18;;;;;;;;;;5153060;27;20393;-82
2022/10/26 02:39:31;;;;;;;14.63;9.20;;;;;;;;;;5139695;27;20096;-83
2022/10/26 02:42:18;;;;;;;19.45;9.13;;;;;;;;;;5140032;27;20030;-83
2022/10/26 02:45:05;;;;;;;16.55;9.70;;;;;;;;;;5137173;27;20057;-82
2022/10/26 02:47:50;;;;;;;18.65;10.82;;;;;;;;;;5137351;27;20041;-82
2022/10/26 02:50:46;;;;;;;18.73;9.50;;;;;;;;;;5137901;27;20033;-82
2022/10/26 02:53:33;;;;;;;15.05;8.85;;;;;;;;;;5140579;27;20073;-82
2022/10/26 02:56:20;;;;;;;16.40;8.98;;;;;;;;;;5156654;27;20385;-83
2022/10/26 02:59:06;;;;;;;17.33;10.10;;;;;;;;;;5141324;27;20112;-82
2022/10/26 03:01:51;;;;;;;20.10;9.30;;;;;;;;;;5141002;27;20386;-82
2022/10/26 03:04:36;;;;;;;16.67;9.80;;;;;;;;;;5156256;27;20106;-82
2022/10/26 03:07:21;;;;;;;18.63;9.15;;;;;;;;;;5140308;27;20042;-82
2022/10/26 03:10:06;;;;;;;18.55;10.00;;;;;;;;;;5156675;27;20053;-82
2022/10/26 03:12:52;;;;;;;19.70;10.15;;;;;;;;;;5156487;27;20439;-82
2022/10/26 03:15:37;;;;;;;21.42;9.23;;;;;;;;;;5155822;27;20106;-82
2022/10/26 03:18:22;;;;;;;17.42;10.32;;;;;;;;;;5155860;27;20059;-83
2022/10/26 03:21:07;;;;;;;20.63;10.15;;;;;;;;;;5156244;27;20037;-82
2022/10/26 03:23:51;;;;;;;20.58;10.13;;;;;;;;;;5156536;27;20042;-82
2022/10/26 03:26:36;;;;;;;18.23;9.93;;;;;;;;;;5155567;27;20168;-82
2022/10/26 03:29:20;;;;;;;17.52;9.95;;;;;;;;;;5155449;27;20527;-84
2022/10/26 03:32:05;;;;;;;19.15;10.43;;;;;;;;;;5156413;27;20115;-82
2022/10/26 03:34:50;;;;;;;19.48;10.50;;;;;;;;;;5140537;27;20090;-83
2022/10/26 03:37:34;;;;;;;18.88;11.32;;;;;;;;;;5155363;27;20034;-82
2022/10/26 03:40:19;;;;;;;19.63;10.95;;;;;;;;;;5141260;27;20053;-84
2022/10/26 03:43:03;;;;;;;16.75;10.55;;;;;;;;;;5139694;27;20622;-84
2022/10/26 03:45:48;;;;;;;20.83;10.07;;;;;;;;;;5144325;27;20497;-82
2022/10/26 03:48:32;;;;;;;17.50;10.75;;;;;;;;;;5155171;27;20391;-82
2022/10/26 03:51:17;;;;;;;18.02;10.55;;;;;;;;;;5155732;27;20075;-82
2022/10/26 03:54:01;;;;;;;25.23;11.98;;;;;;;;;;5141644;27;20034;-82
2022/10/26 03:56:46;;;;;;;26.15;11.63;;;;;;;;;;5139461;27;20117;-83
2022/10/26 03:59:30;;;;;;;18.50;10.93;;;;;;;;;;5139637;27;20149;-82
2022/10/26 04:02:15;;;;;;;21.05;11.45;;;;;;;;;;5155366;27;20042;-82
2022/10/26 04:04:59;;;;;;;23.25;11.20;;;;;;;;;;5155542;27;20540;-82
2022/10/26 04:07:51;;;;;;;21.33;10.93;;;;;;;;;;5154837;27;20042;-82
2022/10/26 04:10:35;;;;;;;21.35;11.38;;;;;;;;;;5154675;27;20065;-82
2022/10/26 04:13:20;;;;;;;18.42;10.18;;;;;;;;;;5130937;27;20045;-82
2022/10/26 04:16:05;;;;;;;19.75;10.70;;;;;;;;;;5155305;27;20030;-82
2022/10/26 04:18:49;;;;;;;20.30;10.48;;;;;;;;;;5139341;27;20418;-83
2022/10/26 04:21:34;;;;;;;24.20;12.02;;;;;;;;;;5139084;27;20077;-83
2022/10/26 04:24:18;;;;;;;17.63;10.93;;;;;;;;;;5139396;27;20088;-82
2022/10/26 04:27:03;;;;;;;25.42;10.95;;;;;;;;;;5139153;27;20106;-82
2022/10/26 04:29:47;;;;;;;25.08;10.73;;;;;;;;;;5124289;27;20091;-82
2022/10/26 04:32:32;;;;;;;20.50;10.48;;;;;;;;;;5138621;27;20038;-83
2022/10/26 04:35:16;;;;;;;21.45;11.45;;;;;;;;;;5124949;27;20038;-82
2022/10/26 04:38:03;;;;;;;21.45;10.70;;;9.30;99.90;;;;;;5123314;27;20160;-83
2022/10/26 04:40:50;;;;;;;28.58;12.27;;;;;;;;;;5143264;27;20106;-82
2022/10/26 04:43:34;;;;;;;22.70;11.50;;;;;;;;;;5152078;27;20162;-82
2022/10/26 04:46:19;;;;;;;22.23;11.15;;;;;;;;;;5154956;27;20432;-83
2022/10/26 04:49:03;;;;;;;19.40;10.90;;;;;;;;;;5119724;27;20111;-82
2022/10/26 04:51:48;;;;;;;21.15;12.20;;;;;;;;;;5133820;27;20029;-82
2022/10/26 04:54:32;;;;;;;24.95;13.15;;;;;;;;;;5152833;27;20527;-83
2022/10/26 04:57:17;;;;;;;18.35;11.05;;;;;;;;;;5153365;27;20060;-82
2022/10/26 05:00:04;;;;;;;24.52;11.27;;;;;;;;;;5143786;27;20026;-83
2022/10/26 05:02:49;;;;;;;23.08;11.68;;;;;;;;;;5141980;27;20034;-82
2022/10/26 05:05:34;;;;;;;20.92;11.63;;;;;;;;;;5137050;27;20087;-82
2022/10/26 05:08:19;;;;;;;26.00;12.13;;;;;;;;;;5151098;27;20038;-82
2022/10/26 05:11:04;;;;;;;23.98;12.30;;;;;;;;;;5153581;27;20527;-82
2022/10/26 05:13:48;;;;;;;21.83;11.40;;;;;;;;;;5152637;27;20045;-82
2022/10/26 05:16:33;;;;;;;21.63;10.70;;;;;;;;;;5150923;27;20041;-84
2022/10/26 05:19:17;;;;;;;17.83;11.77;;;;;;;;;;5153590;27;20033;-82
2022/10/26 05:22:02;;;;;;;21.90;11.65;;;;;;;;;;5137947;27;20090;-82
2022/10/26 05:24:46;;;;;;;19.25;10.75;;;;;;;;;;5120160;27;20175;-82
2022/10/26 05:27:31;;;;;;;30.92;11.88;;;;;;;;;;5137630;27;20068;-83
2022/10/26 05:30:15;;;;;;;19.75;10.77;;;;;;;;;;5137946;27;20041;-82
2022/10/26 05:33:02;;;;;;;22.88;11.40;;;;;;;;;;5136987;27;20037;-83
2022/10/26 05:35:47;;;;;;;19.70;10.40;;;;;;;;;;5152971;27;20424;-83
2022/10/26 05:38:31;;;;;;;17.75;10.40;;;;;;;;;;5130492;27;20494;-82
2022/10/26 05:41:15;;;;;;;22.75;11.48;;;;;;;;;;5135974;27;20096;-82
2022/10/26 05:44:00;;;;;;;20.73;10.68;;;;;;;;;;5153287;27;20064;-82
2022/10/26 05:46:46;;;;;;;21.35;10.20;;;;;;;;;;5136783;27;20038;-82
2022/10/26 05:49:30;;;;;;;19.75;10.18;;;;;;;;;;5137535;27;20038;-83
2022/10/26 05:52:15;;;;;;;17.40;10.18;;;;;;;;;;5137378;27;20083;-82
2022/10/26 05:54:59;;;;;;;18.70;9.70;;;;;;;;;;5136807;27;20715;-82
2022/10/26 05:57:44;;;;;;;16.20;10.10;;;;;;;;;;5151923;27;20084;-82
2022/10/26 06:00:29;;;;;;;18.42;10.15;;;;;;;;;;5137455;27;20042;-82
2022/10/26 06:03:24;;;;;;;15.95;9.40;;;;;;;;;;5137485;27;20049;-82
2022/10/26 06:06:10;;;;;;;17.20;9.93;;;;;;;;;;5150400;27;20450;-82
2022/10/26 06:08:55;;;;;;;15.77;9.73;;;;;;;;;;5152382;27;20029;-82
2022/10/26 06:11:40;;;;;;;20.45;9.82;;;;;;;;;;5136862;27;20088;-83
2022/10/26 06:14:25;;;;;;;18.15;10.13;;;;;;;;;;5136803;27;20083;-82
2022/10/26 06:17:15;;;;;;;17.50;9.60;;;;;;;;;;5152984;27;20041;-83
2022/10/26 06:20:11;;;;;;;23.85;9.55;;;;;;;;;;5136705;27;20030;-82
2022/10/26 06:23:00;;;;;;;18.30;9.18;;;;;;;;;;5134828;27;20034;-82
2022/10/26 06:26:04;;;;;;;19.08;9.18;;;;;;;;;;5137599;27;20073;-83
2022/10/26 06:29:17;;;;;;;15.65;9.32;;;10.20;99.90;;;;;;5137991;27;20435;-82
2022/10/26 06:32:01;;;;;;;16.10;8.88;;;;;;;;;;5133023;27;20490;-82
2022/10/26 06:34:47;;;;;;;20.23;8.77;;;;;;;;;;5140850;27;20041;-82
2022/10/26 06:37:31;;;;;;;16.50;7.95;;;;;;;;;;5141372;27;20066;-83
2022/10/26 06:40:17;;;;;;;13.80;8.43;;;;;;;;;;5127112;27;20069;-83
2022/10/26 06:43:02;;;;;;;15.15;9.50;;;;;;;;;;5140650;27;20524;-83
2022/10/26 06:45:49;;;;;;;15.23;7.85;;;;;;;;;;5140928;27;20492;-83
2022/10/26 06:48:44;;;;;;;17.05;8.98;;;;;;;;;;5156981;27;20033;-83
2022/10/26 06:51:29;;;;;;;13.40;7.30;;;;;;;;;;5157090;27;20030;-82
2022/10/26 06:54:17;;;;;;;11.38;7.35;;;;;;;;;;5157232;27;20071;-82
2022/10/26 06:57:02;;;;;;;12.68;7.53;;;;;;;;;;5140576;27;20029;-83
2022/10/26 06:59:49;;;;;;;15.27;7.80;;;;;;;;;;5156346;27;20050;-83
2022/10/26 07:02:34;;;;;;;13.40;7.90;;;;;;;;;;5141292;27;20037;-83
2022/10/26 07:05:19;;;;;;;16.23;7.60;;;;;;;;;;5140992;27;20108;-83
2022/10/26 07:08:04;;;;;;;17.38;7.53;;;;;;;;;;5156263;27;20903;-82
2022/10/26 07:10:49;;;;;;;11.85;6.88;;;;;;;;;;5155991;27;20079;-83
2022/10/26 07:13:33;;;;;;;12.20;7.07;;;;;;;;;;5141018;27;20089;-83
2022/10/26 07:16:18;;;;;;;11.80;7.53;;;;;;;;;;5140981;27;20033;-83
2022/10/26 07:19:02;;;;;;;12.38;6.95;;;;;;;;;;5155773;27;20033;-83
2022/10/26 07:21:47;;;;;;;13.18;7.40;;;;;;;;;;5156127;27;20046;-84
2022/10/26 07:24:31;;;;;;;14.90;7.00;;;;;;;;;;5140344;27;20120;-83
2022/10/26 07:27:18;;;;;;;15.50;6.70;;;;;;;;;;5156414;27;20054;-82
2022/10/26 07:30:03;;;;;;;18.23;5.80;;;;;;;;;;5140656;27;20115;-82
2022/10/26 07:32:47;;;;;;;11.30;6.15;;;;;;;;;;5155733;27;20526;-84
2022/10/26 07:35:32;;;;;;;11.77;6.10;;;;;;;;;;5140521;27;20398;-83
2022/10/26 07:38:17;;;;;;;10.07;5.72;;;;;;;;;;5137218;27;20034;-82
2022/10/26 07:41:01;;;;;;;11.65;5.13;;;;;;;;;;5146463;27;20029;-82
2022/10/26 07:43:47;;;;;;;12.60;5.85;;;;;;;;;;5154764;27;20413;-82
2022/10/26 07:46:59;;;;;;;10.45;5.13;;;;;;;;;;5126433;27;20100;-82
2022/10/26 07:49:44;;;;;;;12.07;6.40;;;;;;;;;;5129070;27;20042;-82
2022/10/26 07:52:28;;;;;;;8.45;5.28;;;;;;;;;;5107791;28;20047;-82
2022/10/26 07:55:13;;;;;;;9.00;5.68;;;;;;;;;;5108041;28;20045;-82
2022/10/26 07:57:57;;;;;;;8.35;4.75;;;;;;;;;;5091484;28;20408;-83
2022/10/26 08:00:42;;;;;;;10.40;5.32;;;;;;;;;;5121684;28;20449;-83
2022/10/26 08:03:26;;;;;;;10.50;5.53;;;;;;;;;;5108665;28;20104;-82
2022/10/26 08:06:11;;;;;;;7.57;4.80;;;;;;;;;;5107830;28;20093;-82
2022/10/26 08:08:56;;;;;;;6.55;4.45;;;;;;;;;;5107992;28;20541;-83
2022/10/26 08:11:40;;;;;;;9.98;5.57;;;;;;;;;;5099786;28;20391;-83
2022/10/26 08:14:25;;;;;;;10.70;4.45;;;;;;;;;;5108292;28;20395;-83
2022/10/26 08:17:09;;;;;;;7.85;4.15;;;;;;;;;;5107831;28;20074;-83
2022/10/26 08:19:54;;;;;;;8.00;4.10;;;;;;;;;;5108852;28;20507;-85
2022/10/26 08:22:38;;;;;;;7.18;4.10;;;;;;;;;;5109063;28;20039;-83
2022/10/26 08:25:25;;;;;;;6.68;3.65;;;;;;;;;;5108321;28;20050;-83
2022/10/26 08:28:10;;;;;;;7.93;4.07;;;;;;;;;;5108654;28;20043;-83
2022/10/26 08:30:55;;;;;;;5.10;3.38;;;;;;;;;;5136765;27;20051;-84
2022/10/26 08:33:40;;;;;;;5.72;3.47;;;;;;;;;;5099685;28;20505;-83
2022/10/26 08:36:25;;;;;;;6.25;3.20;;;;;;;;;;5108903;28;20581;-83
2022/10/26 08:39:10;;;;;;;7.28;4.03;;;;;;;;;;5108520;28;20134;-83
2022/10/26 08:41:58;;;;;;;6.63;3.40;;;;;;;;;;5127790;28;20548;-84
2022/10/26 08:44:46;;;;;;;6.70;3.53;;;;;;;;;;5129036;27;20065;-83
2022/10/26 08:47:34;;;;;;;10.02;3.35;;;;;;;;;;5129429;27;20096;-83
2022/10/26 08:50:24;;;;;;;8.13;3.95;;;;;;;;;;5128622;27;20038;-83
2022/10/26 08:53:21;;;;;;;6.13;3.08;;;;;;;;;;5128844;28;20045;-83
2022/10/26 08:56:23;;;;;;;7.13;3.25;;;;;;;;;;5095768;28;20123;-83
2022/10/26 08:59:13;;;;;;;5.25;3.50;;;;;;;;;;5101051;28;20062;-83
2022/10/26 09:02:00;;;;;;;6.97;3.22;;;;;;;;;;5110562;28;20081;-84
2022/10/26 09:04:45;;;;;;;8.43;3.10;;;;;;;;;;5112449;28;20498;-82
2022/10/26 09:07:48;;;;;;;6.43;3.15;;;;;;;;;;5113181;28;20039;-83
2022/10/26 09:10:54;;;;;;;7.05;3.33;;;17.90;99.90;;;;;;5112212;28;20038;-83
2022/10/26 09:13:47;;;;;;;8.15;3.20;;;;;;;;;;5088651;28;20042;-80
2022/10/26 09:16:44;;;;;;;10.38;3.40;;;;;;;;;;5094787;28;20054;-82
2022/10/26 09:19:44;;;;;;;5.72;3.10;;;;;;;;;;5094445;28;20039;-82
2022/10/26 09:22:28;;;;;;;6.80;3.13;;;;;;;;;;5094501;28;20408;-83
2022/10/26 09:25:18;;;;;;;5.97;2.80;;;;;;;;;;5085012;28;20517;-83
2022/10/26 09:28:04;;;;;;;6.38;2.88;;;;;;;;;;5093956;28;20039;-85
2022/10/26 09:30:49;;;;;;;8.07;3.08;;;;;;;;;;5121669;27;20089;-83
2022/10/26 09:33:36;;;;;;;4.88;2.72;;;;;;;;;;5114911;27;20077;-83
2022/10/26 09:36:22;;;;;;;6.20;2.85;;;;;;;;;;5108618;28;20051;-84
2022/10/26 09:39:13;;;;;;;6.85;2.65;;;;;;;;;;5111212;28;20061;-83
2022/10/26 09:42:11;;;;;;;5.28;3.17;;;;;;;;;;5094945;28;20105;-82
2022/10/26 09:45:17;;;;;;;8.82;2.38;;;;;;;;;;5094006;28;20075;-83
2022/10/26 09:48:19;;;;;;;4.40;2.58;;;;;;;;;;5087065;28;20093;-82
2022/10/26 09:51:04;;;;;;;5.57;2.60;;;;;;;;;;5083722;28;20086;-85
2022/10/26 09:53:49;;;;;;;5.95;2.65;;;;;;;;;;5092838;28;20495;-83
2022/10/26 09:56:36;;;;;;;5.75;2.30;;;;;;;;;;5107255;28;20557;-83
2022/10/26 09:59:29;;;;;;;6.07;2.78;;;;;;;;;;5093360;28;20053;-83
2022/10/26 10:02:42;;;;;;;5.10;2.33;;;19.20;99.90;;;;;;5092105;28;20035;-83
2022/10/26 10:05:34;;;;;;;6.90;2.20;;;;;;;;;;5092179;28;20039;-83
2022/10/26 10:08:23;;;;;;;7.15;2.55;;;;;;;;;;5084250;28;20039;-83
2022/10/26 10:11:09;;;;;;;3.88;2.20;;;;;;;;;;5092011;28;20034;-84
2022/10/26 10:13:54;;;;;;;5.90;2.17;;;;;;;;;;5092571;28;20088;-83
2022/10/26 10:16:39;;;;;;;6.03;2.55;;;;;;;;;;5082812;28;20070;-84
2022/10/26 10:19:26;;;;;;;5.82;2.38;;;;;;;;;;5105971;28;20111;-83
2022/10/26 10:22:12;;;;;;;4.80;2.85;;;;;;;;;;5092957;28;20104;-84
2022/10/26 10:24:58;;;;;;;5.05;1.90;;;;;;;;;;5093336;28;20055;-82
2022/10/26 10:27:53;;;;;;;3.75;2.17;;;;;;;;;;5092963;28;20031;-83
2022/10/26 10:30:37;;;;;;;5.22;2.53;;;;;;;;;;5092413;28;20475;-83
2022/10/26 10:33:22;;;;;;;6.95;2.47;;;;;;;;;;5120306;27;20454;-82
2022/10/26 10:36:08;;;;;;;5.85;2.28;;;;;;;;;;5091860;28;20046;-83
2022/10/26 10:38:53;;;;;;;5.60;2.58;;;;;;;;;;5109324;28;20395;-84
2022/10/26 10:41:38;;;;;;;6.53;2.30;;;;;;;;;;5107726;28;20030;-82
2022/10/26 10:44:28;;;;;;;4.90;2.35;;;;;;;;;;5110372;28;20403;-83
2022/10/26 10:47:29;;;;;;;5.13;2.55;;;18.70;99.90;;;;;;5110962;28;20504;-83
2022/10/26 10:50:13;;;;;;;5.80;2.33;;;;;;;;;;5109039;28;20058;-83
2022/10/26 10:53:22;;;;;;;6.55;2.50;;;;;;;;;;5099959;28;20066;-83
2022/10/26 10:56:13;;;;;;;6.57;2.25;;;;;;;;;;5091775;28;20093;-83
2022/10/26 10:59:00;;;;;;;6.15;1.90;;;;;;;;;;5091527;28;20166;-83
2022/10/26 11:02:17;;;;;;;3.83;1.95;;;;;;;;;;5092749;28;20047;-83
2022/10/26 11:05:05;;;;;;;6.30;2.47;;;;;;;;;;5087410;28;20039;-82
2022/10/26 11:08:11;;;;;;;5.75;2.10;;;;;;;;;;5092796;28;20090;-82
2022/10/26 11:10:58;;;;;;;4.30;2.30;;;;;;;;;;5091842;28;20035;-83
2022/10/26 11:13:57;;;;;;;5.03;2.05;;;;;;;;;;5092295;28;20062;-84
2022/10/26 11:16:51;;;;;;;4.35;2.13;;;;;;;;;;5091368;28;20134;-83
2022/10/26 11:19:36;;;;;;;7.43;2.28;;;;;;;;;;5081451;28;20050;-83
2022/10/26 11:22:25;;;;;;;4.28;2.13;;;;;;;;;;5090428;28;20039;-83
2022/10/26 11:25:22;;;;;;;4.57;1.85;;;;;;;;;;5092483;28;20097;-83
2022/10/26 11:28:12;;;;;;;4.28;2.00;;;;;;;;;;5082186;28;20042;-83
2022/10/26 11:30:58;;;;;;;5.75;2.17;;;;;;;;;;5092079;28;20121;-83
2022/10/26 11:33:47;;;;;;;5.35;2.60;;;;;;;;;;5091355;28;20437;-83
2022/10/26 11:36:34;;;;;;;7.20;2.28;;;;;;;;;;5087920;28;20043;-83
2022/10/26 11:39:22;;;;;;;4.95;2.35;;;;;;;;;;5089720;28;20119;-84
2022/10/26 11:45:13;;;;;;;5.15;2.63;;;;;;;;;;5089092;28;20401;-82
2022/10/26 11:48:00;;;;;;;5.28;2.20;;;;;;;;;;5089610;28;20031;-82
2022/10/26 11:50:47;;;;;;;5.50;1.85;;;;;;;;;;5088685;28;20054;-83
2022/10/26 11:53:36;;;;;;;8.20;3.60;;;;;;;;;;5087629;28;20051;-83
2022/10/26 11:56:27;;;;;;;9.57;3.08;;;;;;;;;;5089109;28;20035;-83
2022/10/26 11:59:18;;;;;;;9.07;2.10;;;;;;;;;;5088526;28;20042;-82
2022/10/26 12:02:12;;;;;;;3.90;1.90;;;;;;;;;;5089300;28;20541;-83
2022/10/26 12:05:17;;;;;;;5.30;1.70;;;18.50;99.90;;;;;;5089355;28;20051;-84
2022/10/26 12:08:07;;;;;;;4.43;1.70;;;;;;;;;;5088194;28;20408;-83
2022/10/26 12:10:58;;;;;;;3.30;1.63;;;;;;;;;;5087951;28;20157;-83
2022/10/26 12:13:47;;;;;;;5.30;2.60;;;;;;;;;;5088297;28;20051;-84
2022/10/26 12:16:34;;;;;;;6.32;1.92;;;;;;;;;;5087562;28;20145;-83
2022/10/26 12:19:31;;;;;;;4.85;1.52;;;;;;;;;;5088913;28;20035;-82
2022/10/26 12:22:17;;;;;;;5.13;2.33;;;;;;;;;;5078184;28;20078;-82
2022/10/26 12:25:05;;;;;;;6.40;2.17;;;;;;;;;;5088889;28;20571;-83
2022/10/26 12:27:54;;;;;;;3.78;1.83;;;;;;;;;;5088736;28;20035;-83
2022/10/26 12:30:39;;;;;;;5.03;2.10;;;;;;;;;;5087178;28;20051;-82
2022/10/26 12:33:28;;;;;;;6.20;2.00;;;;;;;;;;5088296;28;20055;-85
2022/10/26 12:36:46;;;;;;;5.32;2.20;;;18.80;99.90;;;;;;5087508;28;20039;-82
2022/10/26 12:39:31;;;;;;;6.70;2.45;;;;;;;;;;5075087;28;20615;-83
2022/10/26 12:45:21;;;;;;;3.40;1.98;;;;;;;;;;5162464;27;20324;-93
2022/10/26 12:53:25;;;;;;;9.43;3.40;;;;;;;;;;5138416;27;20160;-90
2022/10/26 12:58:21;;;;;;;4.05;1.40;;;;;;;;;;5126567;27;20338;-73
2022/10/26 13:01:06;;;;;;;6.00;1.45;;;18.50;99.90;;;;;;5126958;27;20145;-71
2022/10/26 13:05:47;;;;;;;7.82;1.80;;;18.50;99.90;;;;;;5086623;28;20167;-70
2022/10/26 13:08:47;;;;;;;4.13;1.90;;;18.30;99.90;;;;;;5081439;28;20537;-68
2022/10/26 13:11:41;;;;;;;3.75;1.58;;;18.20;99.90;;;;;;5068167;28;20036;-80
2022/10/26 13:20:06;;;;;;;8.52;4.05;;;;;;;;;;5117411;27;1943222;-82
2022/10/26 13:22:51;;;;;;;10.15;4.05;;;;;;;;;;5158819;27;20084;-83
2022/10/26 13:25:42;;;;;;;7.85;3.08;;;;;;;;;;5164242;27;20042;-83
2022/10/26 13:28:39;;;;;;;7.25;3.38;;;;;;;;;;5161704;27;20038;-82
2022/10/26 13:31:23;;;;;;;8.80;3.67;;;;;;;;;;5158615;27;20088;-83
2022/10/26 13:34:19;;;;;;;11.45;4.68;;;18.60;99.90;;;;;;5164512;27;20498;-83
2022/10/26 13:37:20;;;;;;;8.52;4.50;;;18.10;99.90;;;;;;5143374;27;20074;-82
2022/10/26 13:40:05;;;;;;;10.45;3.78;;;18.40;99.90;;;;;;5149050;27;20038;-82
2022/10/26 13:42:56;;;;;;;9.73;4.88;;;18.60;99.90;;;;;;5149945;27;20130;-82
2022/10/26 13:46:00;;;;;;;9.73;4.40;;;18.80;99.90;;;;;;5133204;27;20110;-82
2022/10/26 13:48:45;;;;;;;9.63;4.35;;;18.90;99.90;;;;;;5149705;27;20087;-82
2022/10/26 13:51:51;;;;;;;10.82;4.30;;;18.90;99.90;;;;;;5151882;27;20038;-84
2022/10/26 13:54:46;;;;;;;8.30;4.53;;;18.80;99.90;;;;;;5135475;27;20119;-83
2022/10/26 13:57:42;;;;;;;8.40;3.80;;;;;;;;;;5151376;27;20036;-81
2022/10/26 14:00:27;;;;;;;6.43;4.00;;;;;;;;;;5136534;27;20037;-82
2022/10/26 14:03:19;;;;;;;11.20;4.28;;;18.50;99.90;;;;;;5151440;27;20045;-82
2022/10/26 14:06:11;;;;;;;9.30;4.53;;;18.30;99.90;;;;;;5135670;27;20092;-83
2022/10/26 14:09:12;;;;;;;10.18;4.30;;;18.20;99.90;;;;;;5151469;27;20497;-82
2022/10/26 14:11:59;;;;;;;7.30;4.00;;;18.10;99.90;;;;;;5151197;27;20034;-82
2022/10/26 14:14:44;;;;;;;6.03;3.80;;;;;;;;;;5134780;27;20049;-83
2022/10/26 14:17:28;;;;;;;13.85;5.13;;;18.30;99.90;;;;;;5151806;27;20394;-82
2022/10/26 14:20:19;;;;;;;13.52;5.03;;;;;;;;;;5151411;27;20142;-82
2022/10/26 14:23:04;;;;;;;6.75;4.13;;;;;;;;;;5151941;27;20071;-82
2022/10/26 14:25:53;;;;;;;8.02;4.28;;;18.00;99.90;;;;;;5151838;27;20430;-83
2022/10/26 14:28:44;;;;;;;9.88;4.40;;;17.90;99.90;;;;;;5133329;27;20068;-84
2022/10/26 14:31:30;;;;;;;6.15;3.97;;;17.90;99.90;;;;;;5134000;27;20084;-83
2022/10/26 14:34:16;;;;;;;9.63;4.38;;;;;;;;;;5139507;27;20432;-82
2022/10/26 14:37:03;;;;;;;11.18;5.78;;;17.90;99.90;;;;;;5123807;27;20087;-83
2022/10/26 14:39:48;;;;;;;9.98;4.05;;;;;;;;;;5121540;27;20043;-83
2022/10/26 14:42:40;;;;;;;14.50;4.65;;;17.80;99.90;;;;;;5135948;27;20042;-82
2022/10/26 14:45:27;;;;;;;11.57;5.22;;;17.80;99.90;;;;;;5120147;27;20030;-82
2022/10/26 14:48:27;;;;;;;10.73;4.75;;;17.50;99.90;;;;;;5119790;27;20079;-83
2022/10/26 14:51:20;;;;;;;9.98;5.13;;;17.60;99.90;;;;;;5136281;27;20034;-82
2022/10/26 14:54:04;;;;;;;6.35;4.20;;;;;;;;;;5151621;27;20394;-82
2022/10/26 14:56:49;;;;;;;7.35;4.22;;;17.50;99.90;;;;;;5139335;27;20046;-83
2022/10/26 14:59:34;;;;;;;8.95;4.30;;;;;;;;;;5122030;27;20042;-82
2022/10/26 15:02:23;;;;;;;12.02;4.53;;;;;;;;;;5136039;27;20045;-85
2022/10/26 15:05:24;;;;;;;12.45;4.88;;;17.30;99.90;;;;;;5133989;27;20061;-83
2022/10/26 15:08:40;;;;;;;6.65;4.55;;;17.30;99.90;;;;;;5134512;27;20127;-83
2022/10/26 15:11:26;;;;;;;10.73;4.72;;;17.20;99.90;;;;;;5116567;27;20042;-83
2022/10/26 15:14:11;;;;;;;9.48;5.18;;;;;;;;;;5145956;27;20065;-82
2022/10/26 15:16:57;;;;;;;12.75;4.85;;;17.20;99.90;;;;;;5135546;27;20088;-83
2022/10/26 15:19:44;;;;;;;10.27;4.45;;;;;;;;;;5122028;27;20135;-84
2022/10/26 15:22:28;;;;;;;10.25;4.97;;;;;;;;;;5135026;27;20541;-83
2022/10/26 15:25:19;;;;;;;9.55;4.68;;;17.10;99.90;;;;;;5119452;27;20039;-83
2022/10/26 15:28:22;;;;;;;9.32;4.88;;;17.10;99.90;;;;;;5118344;27;20165;-83
2022/10/26 15:31:28;;;;;;;7.97;4.97;;;17.10;99.90;;;;;;5139871;27;20489;-83
2022/10/26 15:34:13;;;;;;;8.68;5.03;;;17.00;99.90;;;;;;5137587;27;20057;-82
2022/10/26 15:36:58;;;;;;;9.85;4.88;;;;;;;;;;5145188;27;20034;-82
2022/10/26 15:39:42;;;;;;;10.10;4.90;;;;;;;;;;5106080;27;20039;-82
2022/10/26 15:42:28;;;;;;;12.57;5.22;;;;;;;;;;5133401;27;20089;-82
2022/10/26 15:45:35;;;;;;;11.82;5.28;;;16.90;99.90;;;;;;5118335;27;20038;-82
2022/10/26 15:48:27;;;;;;;13.20;6.07;;;17.20;99.90;;;;;;5134157;27;20050;-82
2022/10/26 15:51:12;;;;;;;7.45;5.15;;;17.20;99.90;;;;;;5133527;27;20088;-82
2022/10/26 15:53:57;;;;;;;12.30;5.35;;;16.60;99.90;;;;;;5121712;27;20025;-82
2022/10/26 15:56:45;;;;;;;20.33;5.95;;;;;;;;;;5140070;27;20037;-82
2022/10/26 15:59:29;;;;;;;8.95;4.30;;;16.40;99.90;;;;;;5121381;27;20038;-82
2022/10/26 16:02:15;;;;;;;8.73;4.45;;;16.60;99.90;;;;;;5139659;27;20058;-82
2022/10/26 16:04:59;;;;;;;9.85;4.50;;;16.70;99.90;;;;;;5122597;27;20038;-82
2022/10/26 16:07:46;;;;;;;13.25;4.72;;;16.80;99.90;;;;;;5137069;27;20077;-82
2022/10/26 16:10:31;;;;;;;7.70;4.70;;;16.80;99.90;;;;;;5124564;27;20033;-81
2022/10/26 16:13:16;;;;;;;13.02;4.35;;;;;;;;;;5137397;27;20046;-82
2022/10/26 16:16:01;;;;;;;8.95;4.70;;;;;;;;;;5132695;27;20042;-82
2022/10/26 16:18:47;;;;;;;8.32;4.95;;;;;;;;;;5133113;27;20448;-81
2022/10/26 16:21:32;;;;;;;9.52;4.55;;;;;;;;;;5134568;27;20099;-81
2022/10/26 16:24:16;;;;;;;8.25;4.68;;;;;;;;;;5134003;27;20079;-82
2022/10/26 16:27:01;;;;;;;9.88;4.20;;;;;;;;;;5125619;27;20440;-81
2022/10/26 16:29:45;;;;;;;7.25;4.28;;;16.50;99.90;;;;;;5120925;27;20394;-82
2022/10/26 16:32:29;;;;;;;10.88;4.25;;;16.80;99.90;;;;;;5132805;27;20444;-81
2022/10/26 16:35:14;;;;;;;9.48;4.25;;;;;;;;;;5118729;27;20038;-82